Glenelg, Maryland
Current Conditions -  °F | °C
As of 11:15 PM on Thursday 18 Dec 2014 (Local Time) from KGAI Reporting Station
Overcast Overcast  
Wind Chill: 26°   Ceiling: 12000
Heat Index: 32°   Visibility: 10mi
Dew Point: 21°   Wind: 7mph
Humidity: 64%   Direction: 300°WNW
Pressure: 30.13"   Gusts: NA
Location:  39.26°N, 77°W
Report Text: KGAI 190415Z 30006KT 10SM FEW031 OVC120 00/M06 A3013 RMK AO1
Loading
Personal Weather Stations






























Interactive Weather Map New forecast layout! Learn more

10-Day Weather Forecast

Advertisements
Track Severe Weather on mobile